sensor_id;sensor_type;location;lat;lon;timestamp;P1;durP1;ratioP1;P2;durP2;ratioP2
51724;SDS011;37801;53.224;6.552;2023-12-07T00:01:17;18.48;;;12.93;;
51724;SDS011;37801;53.224;6.552;2023-12-07T00:03:43;18.02;;;12.43;;
51724;SDS011;37801;53.224;6.552;2023-12-07T00:06:09;18.77;;;12.27;;
51724;SDS011;37801;53.224;6.552;2023-12-07T00:08:35;17.05;;;12.05;;
51724;SDS011;37801;53.224;6.552;2023-12-07T00:11:01;15.77;;;11.68;;
51724;SDS011;37801;53.224;6.552;2023-12-07T00:13:27;16.13;;;12.27;;
51724;SDS011;37801;53.224;6.552;2023-12-07T00:15:54;15.63;;;11.95;;
51724;SDS011;37801;53.224;6.552;2023-12-07T00:18:20;15.40;;;12.00;;
51724;SDS011;37801;53.224;6.552;2023-12-07T00:20:46;18.83;;;11.85;;
51724;SDS011;37801;53.224;6.552;2023-12-07T00:23:12;17.50;;;11.48;;
51724;SDS011;37801;53.224;6.552;2023-12-07T00:25:38;15.35;;;11.63;;
51724;SDS011;37801;53.224;6.552;2023-12-07T00:28:04;14.73;;;11.35;;
51724;SDS011;37801;53.224;6.552;2023-12-07T00:30:30;17.77;;;11.63;;
51724;SDS011;37801;53.224;6.552;2023-12-07T00:32:57;16.58;;;12.15;;
51724;SDS011;37801;53.224;6.552;2023-12-07T00:35:24;16.13;;;11.40;;
51724;SDS011;37801;53.224;6.552;2023-12-07T00:37:54;15.98;;;11.48;;
51724;SDS011;37801;53.224;6.552;2023-12-07T00:40:20;14.52;;;11.25;;
51724;SDS011;37801;53.224;6.552;2023-12-07T00:42:47;17.40;;;11.93;;
51724;SDS011;37801;53.224;6.552;2023-12-07T00:45:13;15.57;;;11.15;;
51724;SDS011;37801;53.224;6.552;2023-12-07T00:47:39;16.67;;;11.50;;
51724;SDS011;37801;53.224;6.552;2023-12-07T00:50:05;16.40;;;11.43;;
51724;SDS011;37801;53.224;6.552;2023-12-07T00:52:32;16.95;;;11.75;;
51724;SDS011;37801;53.224;6.552;2023-12-07T00:54:58;16.33;;;11.90;;
51724;SDS011;37801;53.224;6.552;2023-12-07T00:57:24;16.83;;;12.38;;
51724;SDS011;37801;53.224;6.552;2023-12-07T00:59:51;16.50;;;11.85;;
51724;SDS011;37801;53.224;6.552;2023-12-07T01:02:17;16.75;;;11.73;;
51724;SDS011;37801;53.224;6.552;2023-12-07T01:04:44;17.65;;;12.32;;
51724;SDS011;37801;53.224;6.552;2023-12-07T01:07:10;14.98;;;11.38;;
51724;SDS011;37801;53.224;6.552;2023-12-07T01:09:36;16.85;;;12.07;;
51724;SDS011;37801;53.224;6.552;2023-12-07T01:12:02;16.05;;;12.00;;
51724;SDS011;37801;53.224;6.552;2023-12-07T01:14:28;15.77;;;12.02;;
51724;SDS011;37801;53.224;6.552;2023-12-07T01:16:54;16.60;;;12.07;;
51724;SDS011;37801;53.224;6.552;2023-12-07T01:19:20;17.80;;;12.18;;
51724;SDS011;37801;53.224;6.552;2023-12-07T01:21:47;17.05;;;11.75;;
51724;SDS011;37801;53.224;6.552;2023-12-07T01:24:13;15.32;;;11.23;;
51724;SDS011;37801;53.224;6.552;2023-12-07T01:26:39;18.13;;;12.05;;
51724;SDS011;37801;53.224;6.552;2023-12-07T01:29:05;15.60;;;11.15;;
51724;SDS011;37801;53.224;6.552;2023-12-07T01:31:31;14.95;;;11.00;;
51724;SDS011;37801;53.224;6.552;2023-12-07T01:33:57;16.45;;;10.80;;
51724;SDS011;37801;53.224;6.552;2023-12-07T01:36:23;17.33;;;11.63;;
51724;SDS011;37801;53.224;6.552;2023-12-07T01:38:49;15.18;;;11.25;;
51724;SDS011;37801;53.224;6.552;2023-12-07T01:41:15;15.48;;;10.52;;
51724;SDS011;37801;53.224;6.552;2023-12-07T01:43:48;18.52;;;12.00;;
51724;SDS011;37801;53.224;6.552;2023-12-07T01:46:15;14.32;;;10.90;;
51724;SDS011;37801;53.224;6.552;2023-12-07T01:48:42;15.35;;;11.25;;
51724;SDS011;37801;53.224;6.552;2023-12-07T01:51:08;18.30;;;10.70;;
51724;SDS011;37801;53.224;6.552;2023-12-07T01:53:35;14.52;;;10.98;;
51724;SDS011;37801;53.224;6.552;2023-12-07T01:56:01;15.05;;;10.38;;
51724;SDS011;37801;53.224;6.552;2023-12-07T01:58:27;14.85;;;10.63;;
51724;SDS011;37801;53.224;6.552;2023-12-07T02:00:53;15.10;;;10.75;;
51724;SDS011;37801;53.224;6.552;2023-12-07T02:03:19;16.70;;;10.95;;
51724;SDS011;37801;53.224;6.552;2023-12-07T02:05:46;14.70;;;10.10;;
51724;SDS011;37801;53.224;6.552;2023-12-07T02:08:13;15.65;;;10.55;;
51724;SDS011;37801;53.224;6.552;2023-12-07T02:10:39;14.85;;;11.07;;
51724;SDS011;37801;53.224;6.552;2023-12-07T02:13:06;14.85;;;10.90;;
51724;SDS011;37801;53.224;6.552;2023-12-07T02:15:33;14.18;;;10.38;;
51724;SDS011;37801;53.224;6.552;2023-12-07T02:20:37;15.30;;;10.27;;
51724;SDS011;37801;53.224;6.552;2023-12-07T02:23:07;14.27;;;10.85;;
51724;SDS011;37801;53.224;6.552;2023-12-07T02:25:40;15.63;;;10.68;;
51724;SDS011;37801;53.224;6.552;2023-12-07T02:28:10;15.38;;;10.77;;
51724;SDS011;37801;53.224;6.552;2023-12-07T02:30:36;14.70;;;11.00;;
51724;SDS011;37801;53.224;6.552;2023-12-07T02:33:03;13.90;;;10.10;;
51724;SDS011;37801;53.224;6.552;2023-12-07T02:35:30;14.32;;;10.40;;
51724;SDS011;37801;53.224;6.552;2023-12-07T02:37:56;13.25;;;9.93;;
51724;SDS011;37801;53.224;6.552;2023-12-07T02:40:23;12.32;;;9.68;;
51724;SDS011;37801;53.224;6.552;2023-12-07T02:42:50;12.00;;;9.13;;
51724;SDS011;37801;53.224;6.552;2023-12-07T02:45:17;14.82;;;10.15;;
51724;SDS011;37801;53.224;6.552;2023-12-07T02:47:43;15.77;;;10.73;;
51724;SDS011;37801;53.224;6.552;2023-12-07T02:50:10;16.05;;;11.23;;
51724;SDS011;37801;53.224;6.552;2023-12-07T02:52:36;16.60;;;10.68;;
51724;SDS011;37801;53.224;6.552;2023-12-07T02:55:03;15.45;;;10.13;;
51724;SDS011;37801;53.224;6.552;2023-12-07T02:57:29;13.52;;;10.07;;
51724;SDS011;37801;53.224;6.552;2023-12-07T02:59:55;15.40;;;10.80;;
51724;SDS011;37801;53.224;6.552;2023-12-07T03:02:22;11.95;;;9.40;;
51724;SDS011;37801;53.224;6.552;2023-12-07T03:04:48;14.45;;;10.32;;
51724;SDS011;37801;53.224;6.552;2023-12-07T03:07:14;14.13;;;10.15;;
51724;SDS011;37801;53.224;6.552;2023-12-07T03:09:40;14.07;;;10.45;;
51724;SDS011;37801;53.224;6.552;2023-12-07T03:12:06;13.40;;;9.77;;
51724;SDS011;37801;53.224;6.552;2023-12-07T03:14:33;13.40;;;9.85;;
51724;SDS011;37801;53.224;6.552;2023-12-07T03:16:59;13.13;;;10.30;;
51724;SDS011;37801;53.224;6.552;2023-12-07T03:19:25;13.38;;;9.75;;
51724;SDS011;37801;53.224;6.552;2023-12-07T03:21:51;13.18;;;9.40;;
51724;SDS011;37801;53.224;6.552;2023-12-07T03:24:17;14.55;;;9.95;;
51724;SDS011;37801;53.224;6.552;2023-12-07T03:26:43;13.30;;;9.93;;
51724;SDS011;37801;53.224;6.552;2023-12-07T03:29:10;13.27;;;9.73;;
51724;SDS011;37801;53.224;6.552;2023-12-07T03:31:36;15.02;;;10.07;;
51724;SDS011;37801;53.224;6.552;2023-12-07T03:34:02;12.57;;;9.38;;
51724;SDS011;37801;53.224;6.552;2023-12-07T03:36:30;13.38;;;9.55;;
51724;SDS011;37801;53.224;6.552;2023-12-07T03:38:56;13.48;;;10.07;;
51724;SDS011;37801;53.224;6.552;2023-12-07T03:41:22;13.55;;;9.80;;
51724;SDS011;37801;53.224;6.552;2023-12-07T03:43:48;13.30;;;9.73;;
51724;SDS011;37801;53.224;6.552;2023-12-07T03:46:14;15.98;;;10.27;;
51724;SDS011;37801;53.224;6.552;2023-12-07T03:48:40;13.68;;;9.52;;
51724;SDS011;37801;53.224;6.552;2023-12-07T03:51:07;14.38;;;10.15;;
51724;SDS011;37801;53.224;6.552;2023-12-07T03:53:33;16.25;;;9.30;;
51724;SDS011;37801;53.224;6.552;2023-12-07T03:55:59;12.43;;;9.18;;
51724;SDS011;37801;53.224;6.552;2023-12-07T03:58:25;13.15;;;9.82;;
51724;SDS011;37801;53.224;6.552;2023-12-07T04:00:51;14.95;;;9.50;;
51724;SDS011;37801;53.224;6.552;2023-12-07T04:03:17;13.25;;;9.30;;
51724;SDS011;37801;53.224;6.552;2023-12-07T04:05:43;13.00;;;9.32;;
51724;SDS011;37801;53.224;6.552;2023-12-07T04:08:09;13.18;;;9.27;;
51724;SDS011;37801;53.224;6.552;2023-12-07T04:10:36;12.38;;;9.32;;
51724;SDS011;37801;53.224;6.552;2023-12-07T04:13:02;13.38;;;9.85;;
51724;SDS011;37801;53.224;6.552;2023-12-07T04:15:28;12.63;;;8.98;;
51724;SDS011;37801;53.224;6.552;2023-12-07T04:17:54;16.85;;;9.95;;
51724;SDS011;37801;53.224;6.552;2023-12-07T04:20:20;12.75;;;9.13;;
51724;SDS011;37801;53.224;6.552;2023-12-07T04:22:46;13.13;;;8.82;;
51724;SDS011;37801;53.224;6.552;2023-12-07T04:25:13;16.55;;;9.98;;
51724;SDS011;37801;53.224;6.552;2023-12-07T04:27:39;11.80;;;8.82;;
51724;SDS011;37801;53.224;6.552;2023-12-07T04:30:05;12.00;;;8.52;;
51724;SDS011;37801;53.224;6.552;2023-12-07T04:32:31;11.68;;;8.02;;
51724;SDS011;37801;53.224;6.552;2023-12-07T04:34:57;11.85;;;8.48;;
51724;SDS011;37801;53.224;6.552;2023-12-07T04:37:23;10.43;;;7.70;;
51724;SDS011;37801;53.224;6.552;2023-12-07T04:39:49;12.65;;;8.50;;
51724;SDS011;37801;53.224;6.552;2023-12-07T04:42:16;11.35;;;8.18;;
51724;SDS011;37801;53.224;6.552;2023-12-07T04:44:42;11.07;;;8.13;;
51724;SDS011;37801;53.224;6.552;2023-12-07T04:47:08;11.80;;;8.80;;
51724;SDS011;37801;53.224;6.552;2023-12-07T04:49:34;13.27;;;8.68;;
51724;SDS011;37801;53.224;6.552;2023-12-07T04:52:00;12.07;;;8.57;;
51724;SDS011;37801;53.224;6.552;2023-12-07T04:54:42;12.30;;;8.85;;
51724;SDS011;37801;53.224;6.552;2023-12-07T04:57:08;11.60;;;9.07;;
51724;SDS011;37801;53.224;6.552;2023-12-07T04:59:34;13.52;;;8.70;;
51724;SDS011;37801;53.224;6.552;2023-12-07T05:02:01;14.55;;;9.00;;
51724;SDS011;37801;53.224;6.552;2023-12-07T05:04:27;11.68;;;8.57;;
51724;SDS011;37801;53.224;6.552;2023-12-07T05:06:53;12.15;;;8.90;;
51724;SDS011;37801;53.224;6.552;2023-12-07T05:09:19;12.60;;;9.50;;
51724;SDS011;37801;53.224;6.552;2023-12-07T05:11:46;12.65;;;9.32;;
51724;SDS011;37801;53.224;6.552;2023-12-07T05:14:12;12.05;;;9.00;;
51724;SDS011;37801;53.224;6.552;2023-12-07T05:16:39;12.07;;;8.85;;
51724;SDS011;37801;53.224;6.552;2023-12-07T05:19:06;12.77;;;9.73;;
51724;SDS011;37801;53.224;6.552;2023-12-07T05:21:32;14.95;;;10.18;;
51724;SDS011;37801;53.224;6.552;2023-12-07T05:23:58;13.18;;;9.07;;
51724;SDS011;37801;53.224;6.552;2023-12-07T05:26:24;13.85;;;9.55;;
51724;SDS011;37801;53.224;6.552;2023-12-07T05:28:50;12.48;;;8.65;;
51724;SDS011;37801;53.224;6.552;2023-12-07T05:31:17;13.88;;;9.05;;
51724;SDS011;37801;53.224;6.552;2023-12-07T05:33:43;13.95;;;9.80;;
51724;SDS011;37801;53.224;6.552;2023-12-07T05:36:09;13.00;;;9.82;;
51724;SDS011;37801;53.224;6.552;2023-12-07T05:38:37;12.73;;;9.57;;
51724;SDS011;37801;53.224;6.552;2023-12-07T05:41:03;12.55;;;9.35;;
51724;SDS011;37801;53.224;6.552;2023-12-07T05:43:29;14.65;;;9.93;;
51724;SDS011;37801;53.224;6.552;2023-12-07T05:45:56;15.50;;;10.38;;
51724;SDS011;37801;53.224;6.552;2023-12-07T05:48:22;13.15;;;9.38;;
51724;SDS011;37801;53.224;6.552;2023-12-07T05:50:48;13.25;;;9.40;;
51724;SDS011;37801;53.224;6.552;2023-12-07T05:53:30;15.63;;;9.95;;
51724;SDS011;37801;53.224;6.552;2023-12-07T05:55:59;13.07;;;9.25;;
51724;SDS011;37801;53.224;6.552;2023-12-07T05:58:25;15.05;;;10.05;;
51724;SDS011;37801;53.224;6.552;2023-12-07T06:00:51;13.40;;;10.02;;
51724;SDS011;37801;53.224;6.552;2023-12-07T06:03:17;14.20;;;10.23;;
51724;SDS011;37801;53.224;6.552;2023-12-07T06:05:43;13.77;;;10.32;;
51724;SDS011;37801;53.224;6.552;2023-12-07T06:08:11;14.80;;;10.68;;
51724;SDS011;37801;53.224;6.552;2023-12-07T06:10:37;16.83;;;11.48;;
51724;SDS011;37801;53.224;6.552;2023-12-07T06:13:04;15.23;;;10.75;;
51724;SDS011;37801;53.224;6.552;2023-12-07T06:15:30;13.60;;;10.43;;
51724;SDS011;37801;53.224;6.552;2023-12-07T06:17:57;15.20;;;11.02;;
51724;SDS011;37801;53.224;6.552;2023-12-07T06:20:23;18.70;;;11.25;;
51724;SDS011;37801;53.224;6.552;2023-12-07T06:22:50;16.55;;;12.07;;
51724;SDS011;37801;53.224;6.552;2023-12-07T06:25:16;16.20;;;10.88;;
51724;SDS011;37801;53.224;6.552;2023-12-07T06:27:42;15.70;;;11.18;;
51724;SDS011;37801;53.224;6.552;2023-12-07T06:30:09;17.23;;;11.75;;
51724;SDS011;37801;53.224;6.552;2023-12-07T06:32:35;16.30;;;12.05;;
51724;SDS011;37801;53.224;6.552;2023-12-07T06:35:02;15.23;;;10.77;;
51724;SDS011;37801;53.224;6.552;2023-12-07T06:37:48;16.38;;;10.65;;
51724;SDS011;37801;53.224;6.552;2023-12-07T06:40:14;13.55;;;9.85;;
51724;SDS011;37801;53.224;6.552;2023-12-07T06:42:40;16.92;;;11.85;;
51724;SDS011;37801;53.224;6.552;2023-12-07T06:45:06;18.15;;;11.50;;
51724;SDS011;37801;53.224;6.552;2023-12-07T06:47:39;18.55;;;11.80;;
51724;SDS011;37801;53.224;6.552;2023-12-07T06:50:22;16.83;;;10.50;;
51724;SDS011;37801;53.224;6.552;2023-12-07T06:52:48;17.63;;;11.75;;
51724;SDS011;37801;53.224;6.552;2023-12-07T06:55:14;15.07;;;10.55;;
51724;SDS011;37801;53.224;6.552;2023-12-07T06:57:40;18.15;;;11.80;;
51724;SDS011;37801;53.224;6.552;2023-12-07T07:00:10;15.57;;;10.90;;
51724;SDS011;37801;53.224;6.552;2023-12-07T07:02:40;16.65;;;11.40;;
51724;SDS011;37801;53.224;6.552;2023-12-07T07:05:06;16.80;;;11.52;;
51724;SDS011;37801;53.224;6.552;2023-12-07T07:07:32;16.42;;;11.55;;
51724;SDS011;37801;53.224;6.552;2023-12-07T07:09:58;17.13;;;11.20;;
51724;SDS011;37801;53.224;6.552;2023-12-07T07:12:24;16.40;;;11.05;;
51724;SDS011;37801;53.224;6.552;2023-12-07T07:14:50;16.25;;;11.20;;
51724;SDS011;37801;53.224;6.552;2023-12-07T07:17:17;16.73;;;11.35;;
51724;SDS011;37801;53.224;6.552;2023-12-07T07:19:43;16.38;;;11.32;;
51724;SDS011;37801;53.224;6.552;2023-12-07T07:22:09;16.48;;;10.90;;
51724;SDS011;37801;53.224;6.552;2023-12-07T07:24:35;15.88;;;10.68;;
51724;SDS011;37801;53.224;6.552;2023-12-07T07:27:01;15.07;;;10.40;;
51724;SDS011;37801;53.224;6.552;2023-12-07T07:29:27;15.95;;;10.25;;
51724;SDS011;37801;53.224;6.552;2023-12-07T07:31:54;16.48;;;10.85;;
51724;SDS011;37801;53.224;6.552;2023-12-07T07:34:21;13.85;;;10.32;;
51724;SDS011;37801;53.224;6.552;2023-12-07T07:36:47;15.35;;;11.18;;
51724;SDS011;37801;53.224;6.552;2023-12-07T07:39:14;20.80;;;12.25;;
51724;SDS011;37801;53.224;6.552;2023-12-07T07:41:40;18.67;;;12.35;;
51724;SDS011;37801;53.224;6.552;2023-12-07T07:44:06;17.20;;;12.15;;
51724;SDS011;37801;53.224;6.552;2023-12-07T07:46:33;16.35;;;11.45;;
51724;SDS011;37801;53.224;6.552;2023-12-07T07:48:59;17.92;;;12.43;;
51724;SDS011;37801;53.224;6.552;2023-12-07T07:51:41;17.23;;;11.55;;
51724;SDS011;37801;53.224;6.552;2023-12-07T07:54:07;17.58;;;11.93;;
51724;SDS011;37801;53.224;6.552;2023-12-07T07:56:34;16.70;;;11.30;;
51724;SDS011;37801;53.224;6.552;2023-12-07T07:59:00;17.83;;;12.10;;
51724;SDS011;37801;53.224;6.552;2023-12-07T08:01:27;17.42;;;12.15;;
51724;SDS011;37801;53.224;6.552;2023-12-07T08:03:53;17.40;;;12.25;;
51724;SDS011;37801;53.224;6.552;2023-12-07T08:06:19;19.58;;;12.02;;
51724;SDS011;37801;53.224;6.552;2023-12-07T08:08:45;19.02;;;12.60;;
51724;SDS011;37801;53.224;6.552;2023-12-07T08:11:14;17.70;;;11.48;;
51724;SDS011;37801;53.224;6.552;2023-12-07T08:13:40;17.58;;;12.55;;
51724;SDS011;37801;53.224;6.552;2023-12-07T08:16:09;17.20;;;12.27;;
51724;SDS011;37801;53.224;6.552;2023-12-07T08:18:35;20.75;;;12.70;;
51724;SDS011;37801;53.224;6.552;2023-12-07T08:21:01;20.08;;;12.73;;
51724;SDS011;37801;53.224;6.552;2023-12-07T08:23:27;17.00;;;11.85;;
51724;SDS011;37801;53.224;6.552;2023-12-07T08:25:53;20.05;;;13.65;;
51724;SDS011;37801;53.224;6.552;2023-12-07T08:28:22;19.73;;;12.98;;
51724;SDS011;37801;53.224;6.552;2023-12-07T08:30:48;17.83;;;12.73;;
51724;SDS011;37801;53.224;6.552;2023-12-07T08:33:14;20.10;;;13.15;;
51724;SDS011;37801;53.224;6.552;2023-12-07T08:35:40;19.80;;;13.23;;
51724;SDS011;37801;53.224;6.552;2023-12-07T08:38:06;21.70;;;13.65;;
51724;SDS011;37801;53.224;6.552;2023-12-07T08:40:32;21.48;;;13.77;;
51724;SDS011;37801;53.224;6.552;2023-12-07T08:42:58;21.77;;;13.57;;
51724;SDS011;37801;53.224;6.552;2023-12-07T08:45:24;23.35;;;14.10;;
51724;SDS011;37801;53.224;6.552;2023-12-07T08:47:50;20.13;;;14.38;;
51724;SDS011;37801;53.224;6.552;2023-12-07T08:50:16;23.10;;;14.52;;
51724;SDS011;37801;53.224;6.552;2023-12-07T08:52:43;21.88;;;14.38;;
51724;SDS011;37801;53.224;6.552;2023-12-07T08:55:09;20.45;;;13.60;;
51724;SDS011;37801;53.224;6.552;2023-12-07T08:57:35;20.00;;;13.70;;
51724;SDS011;37801;53.224;6.552;2023-12-07T09:00:02;20.48;;;13.27;;
51724;SDS011;37801;53.224;6.552;2023-12-07T09:02:28;19.80;;;13.20;;
51724;SDS011;37801;53.224;6.552;2023-12-07T09:04:54;22.70;;;14.18;;
51724;SDS011;37801;53.224;6.552;2023-12-07T09:07:21;21.55;;;14.75;;
51724;SDS011;37801;53.224;6.552;2023-12-07T09:09:47;22.83;;;13.98;;
51724;SDS011;37801;53.224;6.552;2023-12-07T09:12:13;24.80;;;15.30;;
51724;SDS011;37801;53.224;6.552;2023-12-07T09:14:39;24.52;;;15.27;;
51724;SDS011;37801;53.224;6.552;2023-12-07T09:17:06;22.23;;;15.18;;
51724;SDS011;37801;53.224;6.552;2023-12-07T09:19:32;26.13;;;16.35;;
51724;SDS011;37801;53.224;6.552;2023-12-07T09:21:58;24.98;;;16.20;;
51724;SDS011;37801;53.224;6.552;2023-12-07T09:24:24;22.80;;;15.30;;
51724;SDS011;37801;53.224;6.552;2023-12-07T09:26:50;25.27;;;16.65;;
51724;SDS011;37801;53.224;6.552;2023-12-07T09:29:17;26.45;;;16.45;;
51724;SDS011;37801;53.224;6.552;2023-12-07T09:31:43;27.63;;;16.75;;
51724;SDS011;37801;53.224;6.552;2023-12-07T09:34:09;27.05;;;17.48;;
51724;SDS011;37801;53.224;6.552;2023-12-07T09:36:36;29.00;;;17.25;;
51724;SDS011;37801;53.224;6.552;2023-12-07T09:39:02;27.98;;;18.70;;
51724;SDS011;37801;53.224;6.552;2023-12-07T09:41:29;26.75;;;16.90;;
51724;SDS011;37801;53.224;6.552;2023-12-07T09:43:55;29.58;;;18.00;;
51724;SDS011;37801;53.224;6.552;2023-12-07T09:46:21;29.67;;;18.58;;
51724;SDS011;37801;53.224;6.552;2023-12-07T09:48:48;31.48;;;19.33;;
51724;SDS011;37801;53.224;6.552;2023-12-07T09:51:17;33.55;;;19.73;;
51724;SDS011;37801;53.224;6.552;2023-12-07T09:53:45;33.38;;;19.65;;
51724;SDS011;37801;53.224;6.552;2023-12-07T09:56:11;32.22;;;19.73;;
51724;SDS011;37801;53.224;6.552;2023-12-07T09:58:39;32.20;;;20.60;;
51724;SDS011;37801;53.224;6.552;2023-12-07T10:01:07;39.20;;;20.83;;
51724;SDS011;37801;53.224;6.552;2023-12-07T10:03:33;35.08;;;21.35;;
51724;SDS011;37801;53.224;6.552;2023-12-07T10:05:59;33.20;;;20.33;;
51724;SDS011;37801;53.224;6.552;2023-12-07T10:08:30;32.35;;;20.45;;
51724;SDS011;37801;53.224;6.552;2023-12-07T10:11:03;32.50;;;20.30;;
51724;SDS011;37801;53.224;6.552;2023-12-07T10:13:30;34.17;;;20.67;;
51724;SDS011;37801;53.224;6.552;2023-12-07T10:18:52;31.25;;;19.77;;
51724;SDS011;37801;53.224;6.552;2023-12-07T10:21:30;31.55;;;20.48;;
51724;SDS011;37801;53.224;6.552;2023-12-07T10:23:57;32.70;;;19.52;;
51724;SDS011;37801;53.224;6.552;2023-12-07T10:26:23;30.88;;;19.25;;
51724;SDS011;37801;53.224;6.552;2023-12-07T10:28:50;32.15;;;19.75;;
51724;SDS011;37801;53.224;6.552;2023-12-07T10:31:19;31.58;;;19.92;;
51724;SDS011;37801;53.224;6.552;2023-12-07T10:33:47;31.38;;;20.05;;
51724;SDS011;37801;53.224;6.552;2023-12-07T10:36:14;31.17;;;18.38;;
51724;SDS011;37801;53.224;6.552;2023-12-07T10:38:40;32.38;;;20.00;;
51724;SDS011;37801;53.224;6.552;2023-12-07T10:41:12;30.05;;;17.95;;
51724;SDS011;37801;53.224;6.552;2023-12-07T10:43:40;27.10;;;17.73;;
51724;SDS011;37801;53.224;6.552;2023-12-07T10:46:07;28.95;;;18.42;;
51724;SDS011;37801;53.224;6.552;2023-12-07T10:48:34;30.05;;;18.60;;
51724;SDS011;37801;53.224;6.552;2023-12-07T10:51:02;28.67;;;18.73;;
51724;SDS011;37801;53.224;6.552;2023-12-07T10:53:37;26.30;;;16.17;;
51724;SDS011;37801;53.224;6.552;2023-12-07T10:56:05;25.02;;;16.88;;
51724;SDS011;37801;53.224;6.552;2023-12-07T10:58:35;26.95;;;17.75;;
51724;SDS011;37801;53.224;6.552;2023-12-07T11:01:01;26.77;;;16.85;;
51724;SDS011;37801;53.224;6.552;2023-12-07T11:03:28;25.33;;;16.70;;
51724;SDS011;37801;53.224;6.552;2023-12-07T11:05:57;26.70;;;16.80;;
51724;SDS011;37801;53.224;6.552;2023-12-07T11:11:20;26.30;;;17.45;;
51724;SDS011;37801;53.224;6.552;2023-12-07T11:13:56;24.77;;;15.75;;
51724;SDS011;37801;53.224;6.552;2023-12-07T11:16:56;22.75;;;14.93;;
51724;SDS011;37801;53.224;6.552;2023-12-07T11:22:08;25.45;;;15.82;;
51724;SDS011;37801;53.224;6.552;2023-12-07T11:24:35;23.48;;;15.05;;
51724;SDS011;37801;53.224;6.552;2023-12-07T11:27:01;27.00;;;17.17;;
51724;SDS011;37801;53.224;6.552;2023-12-07T11:29:28;22.63;;;15.20;;
51724;SDS011;37801;53.224;6.552;2023-12-07T11:32:01;23.88;;;16.02;;
51724;SDS011;37801;53.224;6.552;2023-12-07T11:34:38;26.17;;;16.55;;
51724;SDS011;37801;53.224;6.552;2023-12-07T11:37:05;24.98;;;16.80;;
51724;SDS011;37801;53.224;6.552;2023-12-07T11:39:34;24.45;;;16.35;;
51724;SDS011;37801;53.224;6.552;2023-12-07T11:42:17;23.60;;;15.70;;
51724;SDS011;37801;53.224;6.552;2023-12-07T11:44:44;24.15;;;16.35;;
51724;SDS011;37801;53.224;6.552;2023-12-07T11:47:16;28.63;;;15.95;;
51724;SDS011;37801;53.224;6.552;2023-12-07T11:49:43;23.02;;;15.63;;
51724;SDS011;37801;53.224;6.552;2023-12-07T11:52:19;22.85;;;15.68;;
51724;SDS011;37801;53.224;6.552;2023-12-07T11:54:48;23.98;;;15.23;;
51724;SDS011;37801;53.224;6.552;2023-12-07T11:57:15;22.38;;;15.18;;
51724;SDS011;37801;53.224;6.552;2023-12-07T11:59:42;24.92;;;15.15;;
51724;SDS011;37801;53.224;6.552;2023-12-07T12:02:12;23.75;;;15.88;;
51724;SDS011;37801;53.224;6.552;2023-12-07T12:04:41;25.73;;;15.93;;
51724;SDS011;37801;53.224;6.552;2023-12-07T12:07:07;24.13;;;15.75;;
51724;SDS011;37801;53.224;6.552;2023-12-07T12:09:34;25.73;;;16.60;;
51724;SDS011;37801;53.224;6.552;2023-12-07T12:12:00;29.40;;;17.70;;
51724;SDS011;37801;53.224;6.552;2023-12-07T12:14:26;26.02;;;16.73;;
51724;SDS011;37801;53.224;6.552;2023-12-07T12:16:53;28.73;;;16.95;;
51724;SDS011;37801;53.224;6.552;2023-12-07T12:19:21;25.42;;;16.25;;
51724;SDS011;37801;53.224;6.552;2023-12-07T12:21:47;26.05;;;16.63;;
51724;SDS011;37801;53.224;6.552;2023-12-07T12:24:13;30.13;;;17.88;;
51724;SDS011;37801;53.224;6.552;2023-12-07T12:26:40;25.45;;;17.15;;
51724;SDS011;37801;53.224;6.552;2023-12-07T12:29:07;26.90;;;17.85;;
51724;SDS011;37801;53.224;6.552;2023-12-07T12:31:34;27.58;;;16.92;;
51724;SDS011;37801;53.224;6.552;2023-12-07T12:34:00;28.67;;;18.33;;
51724;SDS011;37801;53.224;6.552;2023-12-07T12:36:27;28.02;;;17.42;;
51724;SDS011;37801;53.224;6.552;2023-12-07T12:38:54;28.05;;;17.75;;
51724;SDS011;37801;53.224;6.552;2023-12-07T12:41:21;26.63;;;17.65;;
51724;SDS011;37801;53.224;6.552;2023-12-07T12:43:48;27.17;;;17.92;;
51724;SDS011;37801;53.224;6.552;2023-12-07T12:46:15;27.92;;;18.75;;
51724;SDS011;37801;53.224;6.552;2023-12-07T12:48:54;28.63;;;20.05;;
51724;SDS011;37801;53.224;6.552;2023-12-07T12:51:21;29.80;;;19.27;;
51724;SDS011;37801;53.224;6.552;2023-12-07T12:53:49;32.58;;;21.27;;
51724;SDS011;37801;53.224;6.552;2023-12-07T12:56:16;35.67;;;22.67;;
51724;SDS011;37801;53.224;6.552;2023-12-07T12:58:44;37.95;;;23.52;;
51724;SDS011;37801;53.224;6.552;2023-12-07T13:01:10;36.75;;;23.17;;
51724;SDS011;37801;53.224;6.552;2023-12-07T13:03:36;38.30;;;24.30;;
51724;SDS011;37801;53.224;6.552;2023-12-07T13:06:02;41.72;;;24.48;;
51724;SDS011;37801;53.224;6.552;2023-12-07T13:08:29;39.30;;;23.90;;
51724;SDS011;37801;53.224;6.552;2023-12-07T13:10:58;38.75;;;24.05;;
51724;SDS011;37801;53.224;6.552;2023-12-07T13:13:24;36.25;;;22.88;;
51724;SDS011;37801;53.224;6.552;2023-12-07T13:15:50;38.08;;;23.13;;
51724;SDS011;37801;53.224;6.552;2023-12-07T13:18:16;37.05;;;22.73;;
51724;SDS011;37801;53.224;6.552;2023-12-07T13:20:43;33.95;;;21.83;;
51724;SDS011;37801;53.224;6.552;2023-12-07T13:23:09;30.75;;;19.30;;
51724;SDS011;37801;53.224;6.552;2023-12-07T13:25:35;29.45;;;18.70;;
51724;SDS011;37801;53.224;6.552;2023-12-07T13:28:01;32.13;;;19.17;;
51724;SDS011;37801;53.224;6.552;2023-12-07T13:30:27;31.27;;;20.67;;
51724;SDS011;37801;53.224;6.552;2023-12-07T13:32:58;28.67;;;18.85;;
51724;SDS011;37801;53.224;6.552;2023-12-07T13:35:25;29.38;;;19.00;;
51724;SDS011;37801;53.224;6.552;2023-12-07T13:37:51;29.30;;;19.10;;
51724;SDS011;37801;53.224;6.552;2023-12-07T13:40:17;29.15;;;19.20;;
51724;SDS011;37801;53.224;6.552;2023-12-07T13:42:43;27.95;;;19.15;;
51724;SDS011;37801;53.224;6.552;2023-12-07T13:45:09;33.92;;;20.13;;
51724;SDS011;37801;53.224;6.552;2023-12-07T13:47:36;29.02;;;19.42;;
51724;SDS011;37801;53.224;6.552;2023-12-07T13:50:03;30.67;;;19.52;;
51724;SDS011;37801;53.224;6.552;2023-12-07T13:52:30;29.75;;;20.15;;
51724;SDS011;37801;53.224;6.552;2023-12-07T13:54:57;28.88;;;19.27;;
51724;SDS011;37801;53.224;6.552;2023-12-07T13:57:23;31.85;;;20.38;;
51724;SDS011;37801;53.224;6.552;2023-12-07T13:59:50;33.38;;;21.58;;
51724;SDS011;37801;53.224;6.552;2023-12-07T14:02:16;32.65;;;21.50;;
51724;SDS011;37801;53.224;6.552;2023-12-07T14:04:43;33.55;;;20.65;;
51724;SDS011;37801;53.224;6.552;2023-12-07T14:09:35;32.45;;;20.70;;
51724;SDS011;37801;53.224;6.552;2023-12-07T14:12:02;33.42;;;20.27;;
51724;SDS011;37801;53.224;6.552;2023-12-07T14:14:29;31.20;;;20.55;;
51724;SDS011;37801;53.224;6.552;2023-12-07T14:16:55;34.88;;;21.55;;
51724;SDS011;37801;53.224;6.552;2023-12-07T14:19:21;36.10;;;22.33;;
51724;SDS011;37801;53.224;6.552;2023-12-07T14:21:47;35.53;;;21.30;;
51724;SDS011;37801;53.224;6.552;2023-12-07T14:24:13;33.33;;;20.88;;
51724;SDS011;37801;53.224;6.552;2023-12-07T14:26:42;37.40;;;21.73;;
51724;SDS011;37801;53.224;6.552;2023-12-07T14:29:08;35.05;;;20.98;;
51724;SDS011;37801;53.224;6.552;2023-12-07T14:31:39;33.97;;;20.60;;
51724;SDS011;37801;53.224;6.552;2023-12-07T14:34:06;36.60;;;21.67;;
51724;SDS011;37801;53.224;6.552;2023-12-07T14:36:32;36.70;;;20.63;;